Rechercher aéroport 
image banner adimage banner adimage banner ad
image banner ad

60CA - Q Area

Situé à Concord, United States

ICAO - 60CA, IATA -

Données fournies par Airmate  

Information générale

Coordonnées: N38°2'43" W122°0'26"
Élévation : 49 feet MSL.
Variation magnétique : 16° East
Voir autres Aéroports à California

Données opérationnelles

Special qualification required
Heure actuelle UTC:
Heure actuelle locale:
Météo à : KCCR - Buchanan Field ( 8 km )
METAR: KCCR 292353Z 27010KT 10SM CLR 34/13 A2983 RMK AO2 SLP089 T03440133 10350 20244 56014
Voir NOTAMs / SUP AIP / TFR affectant cet aéroport [VIEW]
Fréquences de communication: [VIEW]

Pistes:

Coordonnées de l'aéroport

Adresse: Concord United States

Vue satellite de 60CA